sensor_id;sensor_type;location;lat;lon;timestamp;temperature;humidity
21338;DHT22;72379;50.880;4.350;2023-08-21T00:00:07;22.20;1.00
21338;DHT22;72379;50.880;4.350;2023-08-21T00:02:33;22.30;1.00
21338;DHT22;72379;50.880;4.350;2023-08-21T00:04:59;22.70;1.00
21338;DHT22;72379;50.880;4.350;2023-08-21T00:09:50;22.10;1.00
21338;DHT22;72379;50.880;4.350;2023-08-21T00:12:16;22.30;1.00
21338;DHT22;72379;50.880;4.350;2023-08-21T00:14:42;22.40;1.00
21338;DHT22;72379;50.880;4.350;2023-08-21T00:17:08;22.50;1.00
21338;DHT22;72379;50.880;4.350;2023-08-21T00:19:34;22.70;1.00
21338;DHT22;72379;50.880;4.350;2023-08-21T00:22:00;22.90;1.00
21338;DHT22;72379;50.880;4.350;2023-08-21T00:24:26;22.40;1.00
21338;DHT22;72379;50.880;4.350;2023-08-21T00:26:52;22.30;1.00
21338;DHT22;72379;50.880;4.350;2023-08-21T00:31:43;22.10;1.00
21338;DHT22;72379;50.880;4.350;2023-08-21T00:34:11;21.90;1.00
21338;DHT22;72379;50.880;4.350;2023-08-21T00:39:02;21.80;1.00
21338;DHT22;72379;50.880;4.350;2023-08-21T00:43:54;21.60;1.00
21338;DHT22;72379;50.880;4.350;2023-08-21T00:46:20;21.60;1.00
21338;DHT22;72379;50.880;4.350;2023-08-21T00:48:46;22.00;1.00
21338;DHT22;72379;50.880;4.350;2023-08-21T00:51:14;21.90;1.00
21338;DHT22;72379;50.880;4.350;2023-08-21T00:56:07;21.50;1.00
21338;DHT22;72379;50.880;4.350;2023-08-21T00:58:33;21.30;1.00
21338;DHT22;72379;50.880;4.350;2023-08-21T01:03:25;20.90;1.00
21338;DHT22;72379;50.880;4.350;2023-08-21T01:08:25;21.40;1.00
21338;DHT22;72379;50.880;4.350;2023-08-21T01:11:30;21.50;1.00
21338;DHT22;72379;50.880;4.350;2023-08-21T01:14:06;21.70;1.00
21338;DHT22;72379;50.880;4.350;2023-08-21T01:16:33;21.80;1.00
21338;DHT22;72379;50.880;4.350;2023-08-21T01:19:00;22.00;1.00
21338;DHT22;72379;50.880;4.350;2023-08-21T01:21:28;22.40;1.00
21338;DHT22;72379;50.880;4.350;2023-08-21T01:23:54;22.30;1.00
21338;DHT22;72379;50.880;4.350;2023-08-21T01:26:19;22.30;1.00
21338;DHT22;72379;50.880;4.350;2023-08-21T01:31:23;22.00;1.00
21338;DHT22;72379;50.880;4.350;2023-08-21T01:34:03;21.60;1.00
21338;DHT22;72379;50.880;4.350;2023-08-21T01:36:31;21.80;1.00
21338;DHT22;72379;50.880;4.350;2023-08-21T01:38:57;21.50;1.00
21338;DHT22;72379;50.880;4.350;2023-08-21T01:41:24;21.20;1.00
21338;DHT22;72379;50.880;4.350;2023-08-21T01:43:50;20.90;1.00
21338;DHT22;72379;50.880;4.350;2023-08-21T01:48:42;21.10;1.00
21338;DHT22;72379;50.880;4.350;2023-08-21T01:51:08;21.30;1.00
21338;DHT22;72379;50.880;4.350;2023-08-21T01:55:59;21.80;1.00
21338;DHT22;72379;50.880;4.350;2023-08-21T01:58:25;21.40;1.00
21338;DHT22;72379;50.880;4.350;2023-08-21T02:03:17;20.80;1.00
21338;DHT22;72379;50.880;4.350;2023-08-21T02:05:42;21.00;1.00
21338;DHT22;72379;50.880;4.350;2023-08-21T02:08:12;21.20;1.00
21338;DHT22;72379;50.880;4.350;2023-08-21T02:10:38;21.20;1.00
21338;DHT22;72379;50.880;4.350;2023-08-21T02:13:04;21.50;1.00
21338;DHT22;72379;50.880;4.350;2023-08-21T02:15:29;21.30;1.00
21338;DHT22;72379;50.880;4.350;2023-08-21T02:17:55;21.30;1.00
21338;DHT22;72379;50.880;4.350;2023-08-21T02:20:21;21.60;1.00
21338;DHT22;72379;50.880;4.350;2023-08-21T02:22:46;21.70;1.00
21338;DHT22;72379;50.880;4.350;2023-08-21T02:25:12;21.50;1.00
21338;DHT22;72379;50.880;4.350;2023-08-21T02:27:38;21.30;1.00
21338;DHT22;72379;50.880;4.350;2023-08-21T02:32:30;21.40;1.00
21338;DHT22;72379;50.880;4.350;2023-08-21T02:34:55;21.00;1.00
21338;DHT22;72379;50.880;4.350;2023-08-21T02:39:47;21.10;1.00
21338;DHT22;72379;50.880;4.350;2023-08-21T02:42:13;21.20;1.00
21338;DHT22;72379;50.880;4.350;2023-08-21T02:44:38;20.90;1.00
21338;DHT22;72379;50.880;4.350;2023-08-21T02:47:04;21.00;1.00
21338;DHT22;72379;50.880;4.350;2023-08-21T02:51:56;20.80;1.00
21338;DHT22;72379;50.880;4.350;2023-08-21T02:54:22;20.70;1.00
21338;DHT22;72379;50.880;4.350;2023-08-21T02:56:47;21.00;1.00
21338;DHT22;72379;50.880;4.350;2023-08-21T02:59:13;20.60;1.00
21338;DHT22;72379;50.880;4.350;2023-08-21T03:04:05;20.70;1.00
21338;DHT22;72379;50.880;4.350;2023-08-21T03:06:31;20.50;1.00
21338;DHT22;72379;50.880;4.350;2023-08-21T03:11:22;20.70;1.00
21338;DHT22;72379;50.880;4.350;2023-08-21T03:13:48;20.60;1.00
21338;DHT22;72379;50.880;4.350;2023-08-21T03:16:14;20.90;1.00
21338;DHT22;72379;50.880;4.350;2023-08-21T03:18:56;20.50;1.00
21338;DHT22;72379;50.880;4.350;2023-08-21T03:21:23;20.60;1.00
21338;DHT22;72379;50.880;4.350;2023-08-21T03:23:56;20.60;1.00
21338;DHT22;72379;50.880;4.350;2023-08-21T03:26:23;20.50;1.00
21338;DHT22;72379;50.880;4.350;2023-08-21T03:28:51;20.50;1.00
21338;DHT22;72379;50.880;4.350;2023-08-21T03:31:17;20.80;1.00
21338;DHT22;72379;50.880;4.350;2023-08-21T03:33:42;20.60;1.00
21338;DHT22;72379;50.880;4.350;2023-08-21T03:38:35;20.20;1.00
21338;DHT22;72379;50.880;4.350;2023-08-21T03:43:26;20.20;1.00
21338;DHT22;72379;50.880;4.350;2023-08-21T03:55:36;20.10;1.00
21338;DHT22;72379;50.880;4.350;2023-08-21T03:58:02;20.10;1.00
21338;DHT22;72379;50.880;4.350;2023-08-21T04:00:28;20.20;1.00
21338;DHT22;72379;50.880;4.350;2023-08-21T04:02:53;20.10;1.00
21338;DHT22;72379;50.880;4.350;2023-08-21T04:05:19;20.00;1.00
21338;DHT22;72379;50.880;4.350;2023-08-21T04:12:37;19.80;1.00
21338;DHT22;72379;50.880;4.350;2023-08-21T04:15:03;19.70;1.00
21338;DHT22;72379;50.880;4.350;2023-08-21T04:19:55;20.00;1.00
21338;DHT22;72379;50.880;4.350;2023-08-21T04:22:20;19.80;1.00
21338;DHT22;72379;50.880;4.350;2023-08-21T04:27:13;19.80;1.00
21338;DHT22;72379;50.880;4.350;2023-08-21T04:29:39;19.90;1.00
21338;DHT22;72379;50.880;4.350;2023-08-21T04:32:06;19.90;1.00
21338;DHT22;72379;50.880;4.350;2023-08-21T04:34:35;20.30;1.00
21338;DHT22;72379;50.880;4.350;2023-08-21T04:37:01;19.90;1.00
21338;DHT22;72379;50.880;4.350;2023-08-21T04:39:26;19.60;1.00
21338;DHT22;72379;50.880;4.350;2023-08-21T04:41:52;19.80;1.00
21338;DHT22;72379;50.880;4.350;2023-08-21T04:44:18;19.70;1.00
21338;DHT22;72379;50.880;4.350;2023-08-21T04:46:48;19.50;1.00
21338;DHT22;72379;50.880;4.350;2023-08-21T04:49:14;19.50;1.00
21338;DHT22;72379;50.880;4.350;2023-08-21T04:51:40;19.70;1.00
21338;DHT22;72379;50.880;4.350;2023-08-21T04:54:06;19.60;1.00
21338;DHT22;72379;50.880;4.350;2023-08-21T04:58:57;19.80;1.00
21338;DHT22;72379;50.880;4.350;2023-08-21T05:01:23;19.80;1.00
21338;DHT22;72379;50.880;4.350;2023-08-21T05:03:50;19.80;1.00
21338;DHT22;72379;50.880;4.350;2023-08-21T05:06:16;19.70;1.00
21338;DHT22;72379;50.880;4.350;2023-08-21T05:11:07;20.30;1.00
21338;DHT22;72379;50.880;4.350;2023-08-21T05:13:33;20.30;1.00
21338;DHT22;72379;50.880;4.350;2023-08-21T05:18:25;20.60;1.00
21338;DHT22;72379;50.880;4.350;2023-08-21T05:20:54;20.50;1.00
21338;DHT22;72379;50.880;4.350;2023-08-21T05:23:20;20.60;1.00
21338;DHT22;72379;50.880;4.350;2023-08-21T05:25:48;20.60;1.00
21338;DHT22;72379;50.880;4.350;2023-08-21T05:28:14;20.50;1.00
21338;DHT22;72379;50.880;4.350;2023-08-21T05:35:36;20.60;1.00
21338;DHT22;72379;50.880;4.350;2023-08-21T05:38:03;20.70;1.00
21338;DHT22;72379;50.880;4.350;2023-08-21T05:40:28;20.80;1.00
21338;DHT22;72379;50.880;4.350;2023-08-21T05:42:54;21.00;1.00
21338;DHT22;72379;50.880;4.350;2023-08-21T05:47:46;21.00;1.00
21338;DHT22;72379;50.880;4.350;2023-08-21T05:55:06;21.20;1.00
21338;DHT22;72379;50.880;4.350;2023-08-21T05:57:32;21.40;1.00
21338;DHT22;72379;50.880;4.350;2023-08-21T06:02:24;21.60;1.00
21338;DHT22;72379;50.880;4.350;2023-08-21T06:07:15;21.40;1.00
21338;DHT22;72379;50.880;4.350;2023-08-21T06:12:07;21.40;1.00
21338;DHT22;72379;50.880;4.350;2023-08-21T06:17:00;21.40;1.00
21338;DHT22;72379;50.880;4.350;2023-08-21T06:19:27;21.60;1.00
21338;DHT22;72379;50.880;4.350;2023-08-21T06:21:54;21.50;1.00
21338;DHT22;72379;50.880;4.350;2023-08-21T06:24:19;21.60;1.00
21338;DHT22;72379;50.880;4.350;2023-08-21T06:26:45;21.60;1.00
21338;DHT22;72379;50.880;4.350;2023-08-21T06:31:37;21.70;1.00
21338;DHT22;72379;50.880;4.350;2023-08-21T06:34:02;22.10;1.00
21338;DHT22;72379;50.880;4.350;2023-08-21T06:38:55;22.20;1.00
21338;DHT22;72379;50.880;4.350;2023-08-21T06:41:21;22.10;1.00
21338;DHT22;72379;50.880;4.350;2023-08-21T06:46:13;23.10;1.00
21338;DHT22;72379;50.880;4.350;2023-08-21T06:48:40;24.00;1.00
21338;DHT22;72379;50.880;4.350;2023-08-21T06:51:09;24.30;1.00
21338;DHT22;72379;50.880;4.350;2023-08-21T06:53:35;24.30;1.00
21338;DHT22;72379;50.880;4.350;2023-08-21T06:56:01;24.20;1.00
21338;DHT22;72379;50.880;4.350;2023-08-21T06:58:26;24.20;1.00
21338;DHT22;72379;50.880;4.350;2023-08-21T07:00:55;24.30;1.00
21338;DHT22;72379;50.880;4.350;2023-08-21T07:03:23;24.20;1.00
21338;DHT22;72379;50.880;4.350;2023-08-21T07:05:56;24.20;1.00
21338;DHT22;72379;50.880;4.350;2023-08-21T07:08:23;23.70;1.00
21338;DHT22;72379;50.880;4.350;2023-08-21T07:13:15;24.10;1.00
21338;DHT22;72379;50.880;4.350;2023-08-21T07:15:40;24.00;1.00
21338;DHT22;72379;50.880;4.350;2023-08-21T07:18:06;24.10;1.00
21338;DHT22;72379;50.880;4.350;2023-08-21T07:20:33;25.10;1.00
21338;DHT22;72379;50.880;4.350;2023-08-21T07:22:59;25.80;1.00
21338;DHT22;72379;50.880;4.350;2023-08-21T07:25:25;26.00;1.00
21338;DHT22;72379;50.880;4.350;2023-08-21T07:27:51;26.00;1.00
21338;DHT22;72379;50.880;4.350;2023-08-21T07:30:21;25.90;1.00
21338;DHT22;72379;50.880;4.350;2023-08-21T07:32:48;25.40;1.00
21338;DHT22;72379;50.880;4.350;2023-08-21T07:35:14;25.60;1.00
21338;DHT22;72379;50.880;4.350;2023-08-21T07:37:43;25.40;1.00
21338;DHT22;72379;50.880;4.350;2023-08-21T07:40:09;25.30;1.00
21338;DHT22;72379;50.880;4.350;2023-08-21T07:42:35;25.20;1.00
21338;DHT22;72379;50.880;4.350;2023-08-21T07:45:00;25.10;1.00
21338;DHT22;72379;50.880;4.350;2023-08-21T07:47:29;25.30;1.00
21338;DHT22;72379;50.880;4.350;2023-08-21T07:49:56;25.10;1.00
21338;DHT22;72379;50.880;4.350;2023-08-21T07:52:22;24.80;1.00
21338;DHT22;72379;50.880;4.350;2023-08-21T07:54:52;24.80;1.00
21338;DHT22;72379;50.880;4.350;2023-08-21T07:57:18;24.80;1.00
21338;DHT22;72379;50.880;4.350;2023-08-21T07:59:43;24.50;1.00
21338;DHT22;72379;50.880;4.350;2023-08-21T08:02:09;24.40;1.00
21338;DHT22;72379;50.880;4.350;2023-08-21T08:04:37;24.30;1.00
21338;DHT22;72379;50.880;4.350;2023-08-21T08:11:55;24.30;1.00
21338;DHT22;72379;50.880;4.350;2023-08-21T08:14:20;24.20;1.00
21338;DHT22;72379;50.880;4.350;2023-08-21T08:16:46;24.50;1.00
21338;DHT22;72379;50.880;4.350;2023-08-21T08:19:12;24.50;1.00
21338;DHT22;72379;50.880;4.350;2023-08-21T08:21:37;24.20;1.00
21338;DHT22;72379;50.880;4.350;2023-08-21T08:24:03;24.20;1.00
21338;DHT22;72379;50.880;4.350;2023-08-21T08:26:29;24.40;1.00
21338;DHT22;72379;50.880;4.350;2023-08-21T08:36:15;24.10;1.00
21338;DHT22;72379;50.880;4.350;2023-08-21T08:38:41;23.70;1.00
21338;DHT22;72379;50.880;4.350;2023-08-21T08:43:57;24.50;1.00
21338;DHT22;72379;50.880;4.350;2023-08-21T08:46:24;25.00;1.00
21338;DHT22;72379;50.880;4.350;2023-08-21T08:48:51;25.40;1.00
21338;DHT22;72379;50.880;4.350;2023-08-21T08:53:44;25.50;1.00
21338;DHT22;72379;50.880;4.350;2023-08-21T08:56:10;25.70;1.00
21338;DHT22;72379;50.880;4.350;2023-08-21T09:01:02;25.50;1.00
21338;DHT22;72379;50.880;4.350;2023-08-21T09:03:28;25.70;99.90
21338;DHT22;72379;50.880;4.350;2023-08-21T09:05:54;26.00;99.90
21338;DHT22;72379;50.880;4.350;2023-08-21T09:08:20;25.80;99.90
21338;DHT22;72379;50.880;4.350;2023-08-21T09:10:46;25.90;1.00
21338;DHT22;72379;50.880;4.350;2023-08-21T09:13:16;25.90;1.00
21338;DHT22;72379;50.880;4.350;2023-08-21T09:15:46;25.70;1.00
21338;DHT22;72379;50.880;4.350;2023-08-21T09:20:43;25.60;1.00
21338;DHT22;72379;50.880;4.350;2023-08-21T09:23:13;25.50;99.90
21338;DHT22;72379;50.880;4.350;2023-08-21T09:25:40;25.90;1.00
21338;DHT22;72379;50.880;4.350;2023-08-21T09:28:07;26.00;99.90
21338;DHT22;72379;50.880;4.350;2023-08-21T09:30:47;26.00;1.00
21338;DHT22;72379;50.880;4.350;2023-08-21T09:35:40;25.80;99.90
21338;DHT22;72379;50.880;4.350;2023-08-21T09:38:08;25.50;9.00
21338;DHT22;72379;50.880;4.350;2023-08-21T09:40:34;25.40;99.90
21338;DHT22;72379;50.880;4.350;2023-08-21T09:45:27;25.30;1.00
21338;DHT22;72379;50.880;4.350;2023-08-21T09:47:54;25.50;65.80
21338;DHT22;72379;50.880;4.350;2023-08-21T09:50:21;25.90;1.00
21338;DHT22;72379;50.880;4.350;2023-08-21T09:52:47;26.20;1.00
21338;DHT22;72379;50.880;4.350;2023-08-21T09:55:14;29.80;1.00
21338;DHT22;72379;50.880;4.350;2023-08-21T09:57:41;26.60;1.00
21338;DHT22;72379;50.880;4.350;2023-08-21T10:00:08;26.30;1.00
21338;DHT22;72379;50.880;4.350;2023-08-21T10:02:43;26.60;1.00
21338;DHT22;72379;50.880;4.350;2023-08-21T10:05:15;26.60;1.00
21338;DHT22;72379;50.880;4.350;2023-08-21T10:07:42;26.90;1.00
21338;DHT22;72379;50.880;4.350;2023-08-21T10:10:10;26.50;1.00
21338;DHT22;72379;50.880;4.350;2023-08-21T10:12:37;26.10;1.00
21338;DHT22;72379;50.880;4.350;2023-08-21T10:15:03;25.90;99.90
21338;DHT22;72379;50.880;4.350;2023-08-21T10:17:30;26.10;1.00
21338;DHT22;72379;50.880;4.350;2023-08-21T10:20:10;26.60;1.00
21338;DHT22;72379;50.880;4.350;2023-08-21T10:22:45;26.60;1.00
21338;DHT22;72379;50.880;4.350;2023-08-21T10:25:24;26.30;1.00
21338;DHT22;72379;50.880;4.350;2023-08-21T10:28:00;26.40;1.00
21338;DHT22;72379;50.880;4.350;2023-08-21T10:30:28;26.10;1.00
21338;DHT22;72379;50.880;4.350;2023-08-21T10:32:57;25.80;99.90
21338;DHT22;72379;50.880;4.350;2023-08-21T10:35:24;25.90;1.00
21338;DHT22;72379;50.880;4.350;2023-08-21T10:40:36;26.50;1.00
21338;DHT22;72379;50.880;4.350;2023-08-21T10:45:29;26.50;99.90
21338;DHT22;72379;50.880;4.350;2023-08-21T10:47:58;26.50;1.00
21338;DHT22;72379;50.880;4.350;2023-08-21T10:50:24;26.60;99.90
21338;DHT22;72379;50.880;4.350;2023-08-21T10:52:52;27.10;99.90
21338;DHT22;72379;50.880;4.350;2023-08-21T10:55:18;27.10;99.90
21338;DHT22;72379;50.880;4.350;2023-08-21T10:57:47;27.40;99.90
21338;DHT22;72379;50.880;4.350;2023-08-21T11:00:15;27.30;99.90
21338;DHT22;72379;50.880;4.350;2023-08-21T11:02:48;26.90;1.00
21338;DHT22;72379;50.880;4.350;2023-08-21T11:05:15;26.70;64.10
21338;DHT22;72379;50.880;4.350;2023-08-21T11:07:46;26.90;1.00
21338;DHT22;72379;50.880;4.350;2023-08-21T11:10:14;27.30;99.90
21338;DHT22;72379;50.880;4.350;2023-08-21T11:15:16;27.20;1.00
21338;DHT22;72379;50.880;4.350;2023-08-21T11:17:41;27.40;1.00
21338;DHT22;72379;50.880;4.350;2023-08-21T11:20:08;26.90;1.00
21338;DHT22;72379;50.880;4.350;2023-08-21T11:22:33;27.00;99.90
21338;DHT22;72379;50.880;4.350;2023-08-21T11:24:59;26.90;99.90
21338;DHT22;72379;50.880;4.350;2023-08-21T11:27:25;26.80;1.00
21338;DHT22;72379;50.880;4.350;2023-08-21T11:29:52;27.00;1.00
21338;DHT22;72379;50.880;4.350;2023-08-21T11:32:22;27.20;1.00
21338;DHT22;72379;50.880;4.350;2023-08-21T11:34:52;27.20;1.00
21338;DHT22;72379;50.880;4.350;2023-08-21T11:37:20;27.50;1.00
21338;DHT22;72379;50.880;4.350;2023-08-21T11:39:48;27.60;1.00
21338;DHT22;72379;50.880;4.350;2023-08-21T11:42:15;27.70;1.00
21338;DHT22;72379;50.880;4.350;2023-08-21T11:44:51;27.90;1.00
21338;DHT22;72379;50.880;4.350;2023-08-21T11:47:19;28.10;99.90
21338;DHT22;72379;50.880;4.350;2023-08-21T11:49:46;27.60;1.00
21338;DHT22;72379;50.880;4.350;2023-08-21T11:52:19;27.40;1.00
21338;DHT22;72379;50.880;4.350;2023-08-21T11:54:48;27.60;1.00
21338;DHT22;72379;50.880;4.350;2023-08-21T11:57:15;27.60;1.00
21338;DHT22;72379;50.880;4.350;2023-08-21T11:59:41;27.70;1.00
21338;DHT22;72379;50.880;4.350;2023-08-21T12:02:14;27.90;1.00
21338;DHT22;72379;50.880;4.350;2023-08-21T12:04:41;28.00;1.00
21338;DHT22;72379;50.880;4.350;2023-08-21T12:07:07;27.50;1.00
21338;DHT22;72379;50.880;4.350;2023-08-21T12:09:32;27.60;1.00
21338;DHT22;72379;50.880;4.350;2023-08-21T12:11:58;27.70;99.90
21338;DHT22;72379;50.880;4.350;2023-08-21T12:14:24;27.60;1.00
21338;DHT22;72379;50.880;4.350;2023-08-21T12:16:50;26.80;1.00
21338;DHT22;72379;50.880;4.350;2023-08-21T12:19:16;26.90;1.00
21338;DHT22;72379;50.880;4.350;2023-08-21T12:21:41;26.90;99.90
21338;DHT22;72379;50.880;4.350;2023-08-21T12:24:08;26.70;1.00
21338;DHT22;72379;50.880;4.350;2023-08-21T12:26:34;26.10;1.00
21338;DHT22;72379;50.880;4.350;2023-08-21T12:29:00;26.70;99.90
21338;DHT22;72379;50.880;4.350;2023-08-21T12:33:52;27.90;99.90
21338;DHT22;72379;50.880;4.350;2023-08-21T12:36:18;28.70;1.00
21338;DHT22;72379;50.880;4.350;2023-08-21T12:38:44;28.90;99.90
21338;DHT22;72379;50.880;4.350;2023-08-21T12:41:09;29.30;1.00
21338;DHT22;72379;50.880;4.350;2023-08-21T12:43:35;29.30;1.00
21338;DHT22;72379;50.880;4.350;2023-08-21T12:46:01;29.30;1.00
21338;DHT22;72379;50.880;4.350;2023-08-21T12:48:27;30.10;1.00
21338;DHT22;72379;50.880;4.350;2023-08-21T12:50:52;30.90;99.90
21338;DHT22;72379;50.880;4.350;2023-08-21T12:53:18;32.10;1.00
21338;DHT22;72379;50.880;4.350;2023-08-21T12:55:44;32.30;1.00
21338;DHT22;72379;50.880;4.350;2023-08-21T12:58:10;31.30;1.00
21338;DHT22;72379;50.880;4.350;2023-08-21T13:00:39;31.20;1.00
21338;DHT22;72379;50.880;4.350;2023-08-21T13:03:04;30.10;1.00
21338;DHT22;72379;50.880;4.350;2023-08-21T13:05:30;29.90;1.00
21338;DHT22;72379;50.880;4.350;2023-08-21T13:07:56;30.50;1.00
21338;DHT22;72379;50.880;4.350;2023-08-21T13:10:22;30.70;1.00
21338;DHT22;72379;50.880;4.350;2023-08-21T13:12:47;31.30;1.00
21338;DHT22;72379;50.880;4.350;2023-08-21T13:15:14;31.30;1.00
21338;DHT22;72379;50.880;4.350;2023-08-21T13:17:40;32.10;1.00
21338;DHT22;72379;50.880;4.350;2023-08-21T13:20:06;33.30;1.00
21338;DHT22;72379;50.880;4.350;2023-08-21T13:22:47;34.20;1.00
21338;DHT22;72379;50.880;4.350;2023-08-21T13:25:15;34.20;1.00
21338;DHT22;72379;50.880;4.350;2023-08-21T13:27:41;34.20;99.90
21338;DHT22;72379;50.880;4.350;2023-08-21T13:30:07;34.60;99.90
21338;DHT22;72379;50.880;4.350;2023-08-21T13:32:33;34.60;99.90
21338;DHT22;72379;50.880;4.350;2023-08-21T13:34:59;33.70;99.90
21338;DHT22;72379;50.880;4.350;2023-08-21T13:37:26;34.40;99.90
21338;DHT22;72379;50.880;4.350;2023-08-21T13:39:52;36.00;99.90
21338;DHT22;72379;50.880;4.350;2023-08-21T13:42:20;37.30;99.90
21338;DHT22;72379;50.880;4.350;2023-08-21T13:44:46;37.40;99.90
21338;DHT22;72379;50.880;4.350;2023-08-21T13:47:11;36.10;99.90
21338;DHT22;72379;50.880;4.350;2023-08-21T13:49:37;34.50;99.90
21338;DHT22;72379;50.880;4.350;2023-08-21T13:52:03;34.60;99.90
21338;DHT22;72379;50.880;4.350;2023-08-21T13:54:28;35.80;99.90
21338;DHT22;72379;50.880;4.350;2023-08-21T13:56:55;36.70;99.90
21338;DHT22;72379;50.880;4.350;2023-08-21T13:59:20;35.40;99.90
21338;DHT22;72379;50.880;4.350;2023-08-21T14:01:46;35.80;99.90
21338;DHT22;72379;50.880;4.350;2023-08-21T14:04:12;36.80;99.90
21338;DHT22;72379;50.880;4.350;2023-08-21T14:06:37;36.90;99.90
21338;DHT22;72379;50.880;4.350;2023-08-21T14:09:03;37.90;99.90
21338;DHT22;72379;50.880;4.350;2023-08-21T14:11:28;37.10;99.90
21338;DHT22;72379;50.880;4.350;2023-08-21T14:13:54;36.50;99.90
21338;DHT22;72379;50.880;4.350;2023-08-21T14:16:20;35.60;99.90
21338;DHT22;72379;50.880;4.350;2023-08-21T14:18:46;36.30;99.90
21338;DHT22;72379;50.880;4.350;2023-08-21T14:21:11;36.80;99.90
21338;DHT22;72379;50.880;4.350;2023-08-21T14:23:37;36.90;99.90
21338;DHT22;72379;50.880;4.350;2023-08-21T14:26:04;37.00;99.90
21338;DHT22;72379;50.880;4.350;2023-08-21T14:28:30;38.50;99.90
21338;DHT22;72379;50.880;4.350;2023-08-21T14:30:56;39.90;97.50
21338;DHT22;72379;50.880;4.350;2023-08-21T14:33:21;38.60;92.90
21338;DHT22;72379;50.880;4.350;2023-08-21T14:35:47;38.20;81.00
21338;DHT22;72379;50.880;4.350;2023-08-21T14:38:13;36.90;95.00
21338;DHT22;72379;50.880;4.350;2023-08-21T14:40:38;35.80;99.90
21338;DHT22;72379;50.880;4.350;2023-08-21T14:43:05;37.10;93.80
21338;DHT22;72379;50.880;4.350;2023-08-21T14:45:31;36.70;90.20
21338;DHT22;72379;50.880;4.350;2023-08-21T14:47:57;38.20;80.30
21338;DHT22;72379;50.880;4.350;2023-08-21T14:50:22;38.80;70.70
21338;DHT22;72379;50.880;4.350;2023-08-21T14:52:48;40.10;55.40
21338;DHT22;72379;50.880;4.350;2023-08-21T14:55:14;40.40;43.10
21338;DHT22;72379;50.880;4.350;2023-08-21T14:57:40;40.40;39.80
21338;DHT22;72379;50.880;4.350;2023-08-21T15:00:06;37.80;53.70
21338;DHT22;72379;50.880;4.350;2023-08-21T15:02:34;37.70;46.10
21338;DHT22;72379;50.880;4.350;2023-08-21T15:05:02;37.00;81.80
21338;DHT22;72379;50.880;4.350;2023-08-21T15:07:31;35.90;99.90
21338;DHT22;72379;50.880;4.350;2023-08-21T15:09:56;36.00;72.70
21338;DHT22;72379;50.880;4.350;2023-08-21T15:12:22;37.80;56.40
21338;DHT22;72379;50.880;4.350;2023-08-21T15:14:48;38.20;53.70
21338;DHT22;72379;50.880;4.350;2023-08-21T15:17:14;37.00;1.00
21338;DHT22;72379;50.880;4.350;2023-08-21T15:19:40;36.90;78.70
21338;DHT22;72379;50.880;4.350;2023-08-21T15:22:05;37.60;38.50
21338;DHT22;72379;50.880;4.350;2023-08-21T15:24:31;38.30;99.90
21338;DHT22;72379;50.880;4.350;2023-08-21T15:26:57;38.50;32.80
21338;DHT22;72379;50.880;4.350;2023-08-21T15:29:23;36.90;43.70
21338;DHT22;72379;50.880;4.350;2023-08-21T15:31:49;36.70;46.40
21338;DHT22;72379;50.880;4.350;2023-08-21T15:34:16;37.30;34.30
21338;DHT22;72379;50.880;4.350;2023-08-21T15:36:42;38.90;38.50
21338;DHT22;72379;50.880;4.350;2023-08-21T15:39:07;38.60;28.50
21338;DHT22;72379;50.880;4.350;2023-08-21T15:41:33;35.90;47.90
21338;DHT22;72379;50.880;4.350;2023-08-21T15:43:59;32.40;1.00
21338;DHT22;72379;50.880;4.350;2023-08-21T15:46:24;31.40;1.00
21338;DHT22;72379;50.880;4.350;2023-08-21T15:48:50;30.50;1.00
21338;DHT22;72379;50.880;4.350;2023-08-21T15:51:16;30.10;1.00
21338;DHT22;72379;50.880;4.350;2023-08-21T15:56:07;29.00;1.00
21338;DHT22;72379;50.880;4.350;2023-08-21T15:58:33;29.00;1.00
21338;DHT22;72379;50.880;4.350;2023-08-21T16:00:59;28.50;1.00
21338;DHT22;72379;50.880;4.350;2023-08-21T16:03:26;28.70;1.00
21338;DHT22;72379;50.880;4.350;2023-08-21T16:05:52;28.50;1.00
21338;DHT22;72379;50.880;4.350;2023-08-21T16:08:17;28.40;1.00
21338;DHT22;72379;50.880;4.350;2023-08-21T16:13:09;27.90;1.00
21338;DHT22;72379;50.880;4.350;2023-08-21T16:15:35;27.90;1.00
21338;DHT22;72379;50.880;4.350;2023-08-21T16:18:00;28.00;1.00
21338;DHT22;72379;50.880;4.350;2023-08-21T16:20:26;27.90;1.00
21338;DHT22;72379;50.880;4.350;2023-08-21T16:22:54;27.70;1.00
21338;DHT22;72379;50.880;4.350;2023-08-21T16:25:20;27.80;1.00
21338;DHT22;72379;50.880;4.350;2023-08-21T16:27:46;27.80;1.00
21338;DHT22;72379;50.880;4.350;2023-08-21T16:30:12;27.60;1.00
21338;DHT22;72379;50.880;4.350;2023-08-21T16:32:38;27.80;1.00
21338;DHT22;72379;50.880;4.350;2023-08-21T16:35:05;28.00;1.00
21338;DHT22;72379;50.880;4.350;2023-08-21T16:37:31;27.70;1.00
21338;DHT22;72379;50.880;4.350;2023-08-21T16:39:58;27.40;1.00
21338;DHT22;72379;50.880;4.350;2023-08-21T16:42:24;27.10;1.00
21338;DHT22;72379;50.880;4.350;2023-08-21T16:44:50;26.90;1.00
21338;DHT22;72379;50.880;4.350;2023-08-21T16:47:15;27.00;1.00
21338;DHT22;72379;50.880;4.350;2023-08-21T16:52:07;27.30;8.10
21338;DHT22;72379;50.880;4.350;2023-08-21T16:54:33;27.60;16.90
21338;DHT22;72379;50.880;4.350;2023-08-21T16:56:58;27.50;1.00
21338;DHT22;72379;50.880;4.350;2023-08-21T16:59:24;27.10;8.20
21338;DHT22;72379;50.880;4.350;2023-08-21T17:01:50;27.00;26.00
21338;DHT22;72379;50.880;4.350;2023-08-21T17:11:37;28.60;1.00
21338;DHT22;72379;50.880;4.350;2023-08-21T17:14:03;27.20;58.10
21338;DHT22;72379;50.880;4.350;2023-08-21T17:16:28;27.40;2.50
21338;DHT22;72379;50.880;4.350;2023-08-21T17:18:54;26.90;75.50
21338;DHT22;72379;50.880;4.350;2023-08-21T17:21:19;27.00;64.50
21338;DHT22;72379;50.880;4.350;2023-08-21T17:23:45;27.50;78.50
21338;DHT22;72379;50.880;4.350;2023-08-21T17:26:11;27.40;32.60
21338;DHT22;72379;50.880;4.350;2023-08-21T17:28:38;27.40;22.60
21338;DHT22;72379;50.880;4.350;2023-08-21T17:31:04;27.50;6.20
21338;DHT22;72379;50.880;4.350;2023-08-21T17:33:29;27.50;11.20
21338;DHT22;72379;50.880;4.350;2023-08-21T17:35:55;27.30;36.60
21338;DHT22;72379;50.880;4.350;2023-08-21T17:38:21;27.10;55.60
21338;DHT22;72379;50.880;4.350;2023-08-21T17:43:12;26.90;90.70
21338;DHT22;72379;50.880;4.350;2023-08-21T17:48:05;26.90;99.90
21338;DHT22;72379;50.880;4.350;2023-08-21T17:52:57;27.00;99.90
21338;DHT22;72379;50.880;4.350;2023-08-21T17:55:28;27.20;99.90
21338;DHT22;72379;50.880;4.350;2023-08-21T17:57:54;27.10;99.90
21338;DHT22;72379;50.880;4.350;2023-08-21T18:00:23;26.90;99.90
21338;DHT22;72379;50.880;4.350;2023-08-21T18:02:49;27.00;99.90
21338;DHT22;72379;50.880;4.350;2023-08-21T18:05:14;27.10;99.90
21338;DHT22;72379;50.880;4.350;2023-08-21T18:07:41;27.20;99.90
21338;DHT22;72379;50.880;4.350;2023-08-21T18:10:07;27.00;99.90
21338;DHT22;72379;50.880;4.350;2023-08-21T18:12:34;27.10;99.90
21338;DHT22;72379;50.880;4.350;2023-08-21T18:15:02;27.20;1.00
21338;DHT22;72379;50.880;4.350;2023-08-21T18:17:28;27.00;1.00
21338;DHT22;72379;50.880;4.350;2023-08-21T18:19:54;26.70;99.90